Time;durP1;ratioP1;P1;durP2;ratioP2;P2;SDS_P1;SDS_P2;PMS_P1;PMS_P2;Temp;Humidity;BMP_temperature;BMP_pressure;BME280_temperature;BME280_humidity;BME280_pressure;Samples;Min_cycle;Max_cycle;Signal;HPM_P1;HPM_P2
2022/06/21 00:02:17;;;;;;;9.70;4.03;;;14.90;99.90;;;;;;5031451;28;20497;-81
2022/06/21 00:04:43;;;;;;;4.87;3.07;;;14.80;99.90;;;;;;5031887;28;20781;-81
2022/06/21 00:07:17;;;;;;;4.40;3.13;;;14.90;99.90;;;;;;5031471;28;20414;-82
2022/06/21 00:09:43;;;;;;;5.63;3.47;;;14.90;99.90;;;;;;5031779;28;20433;-81
2022/06/21 00:12:12;;;;;;;5.23;3.03;;;14.90;99.90;;;;;;5031800;28;20775;-82
2022/06/21 00:14:39;;;;;;;4.00;2.70;;;14.90;99.90;;;;;;5031600;28;20215;-81
2022/06/21 00:17:05;;;;;;;4.97;3.60;;;14.90;99.90;;;;;;5031316;28;20418;-82
2022/06/21 00:19:32;;;;;;;4.40;3.50;;;15.00;99.90;;;;;;5031460;28;20435;-81
2022/06/21 00:21:57;;;;;;;6.53;4.53;;;15.00;99.90;;;;;;5031739;28;20910;-81
2022/06/21 00:24:23;;;;;;;4.77;4.13;;;15.00;99.90;;;;;;5031588;28;20414;-81
2022/06/21 00:26:49;;;;;;;5.60;3.00;;;15.00;99.90;;;;;;5031294;28;20181;-81
2022/06/21 00:29:15;;;;;;;5.10;3.47;;;15.00;99.90;;;;;;5031439;28;20176;-81
2022/06/21 00:31:47;;;;;;;5.20;3.43;;;14.90;99.90;;;;;;5030314;28;20180;-81
2022/06/21 00:34:21;;;;;;;6.43;3.40;;;14.90;99.90;;;;;;5031462;28;20536;-81
2022/06/21 00:36:48;;;;;;;6.40;3.30;;;14.80;99.90;;;;;;5029898;28;20435;-81
2022/06/21 00:39:17;;;;;;;5.53;3.83;;;14.70;99.90;;;;;;5031157;28;20415;-81
2022/06/21 00:41:48;;;;;;;6.53;3.80;;;14.70;99.90;;;;;;5031510;28;20415;-82
2022/06/21 00:44:38;;;;;;;5.00;3.30;;;14.70;99.90;;;;;;5031485;28;20901;-82
2022/06/21 00:47:12;;;;;;;4.53;3.43;;;14.70;99.90;;;;;;5031432;28;20894;-81
2022/06/21 00:50:23;;;;;;;4.93;3.73;;;14.70;99.90;;;;;;5035202;28;20454;-81
2022/06/21 00:53:18;;;;;;;7.00;3.50;;;14.60;99.90;;;;;;5033812;28;20430;-81
2022/06/21 00:55:57;;;;;;;4.70;3.47;;;14.60;99.90;;;;;;5033489;28;20478;-81
2022/06/21 00:58:27;;;;;;;5.93;4.10;;;14.50;99.90;;;;;;5034994;28;20469;-81
2022/06/21 01:01:07;;;;;;;5.83;3.47;;;14.50;99.90;;;;;;5034932;28;20839;-81
2022/06/21 01:03:38;;;;;;;4.80;3.23;;;14.50;99.90;;;;;;5035163;28;20498;-81
2022/06/21 01:06:08;;;;;;;6.80;3.80;;;14.40;99.90;;;;;;5034909;28;20906;-81
2022/06/21 01:08:40;;;;;;;5.67;3.50;;;14.40;99.90;;;;;;5034221;28;20458;-82
2022/06/21 01:11:12;;;;;;;6.37;3.53;;;14.30;99.90;;;;;;5035002;28;20437;-81
2022/06/21 01:13:43;;;;;;;6.67;3.97;;;14.30;99.90;;;;;;5033769;28;20488;-82
2022/06/21 01:16:09;;;;;;;5.70;3.43;;;14.20;99.90;;;;;;5034569;28;20941;-81
2022/06/21 01:18:36;;;;;;;6.10;4.10;;;14.20;99.90;;;;;;5034824;28;20423;-82
2022/06/21 01:21:02;;;;;;;4.77;3.40;;;14.10;99.90;;;;;;5034783;28;20445;-82
2022/06/21 01:23:50;;;;;;;5.20;3.63;;;14.20;99.90;;;;;;5034688;28;20403;-81
2022/06/21 01:26:28;;;;;;;5.60;3.70;;;14.20;99.90;;;;;;5034409;28;20403;-81
2022/06/21 01:28:54;;;;;;;4.77;3.40;;;14.10;99.90;;;;;;5033370;28;20847;-82
2022/06/21 01:31:21;;;;;;;6.03;3.70;;;14.00;99.90;;;;;;5033380;28;20431;-81
2022/06/21 01:33:47;;;;;;;9.47;4.87;;;13.90;99.90;;;;;;5034704;28;20402;-81
2022/06/21 01:36:20;;;;;;;6.17;4.10;;;13.90;99.90;;;;;;5034042;28;21037;-81
2022/06/21 01:38:57;;;;;;;5.87;3.90;;;13.90;99.90;;;;;;5034612;28;20811;-82
2022/06/21 01:41:34;;;;;;;5.50;3.47;;;13.90;99.90;;;;;;5034410;28;20980;-82
2022/06/21 01:44:07;;;;;;;4.30;3.73;;;13.80;99.90;;;;;;5033171;28;20936;-82
2022/06/21 01:46:33;;;;;;;5.57;4.10;;;13.80;99.90;;;;;;5033868;28;20935;-81
2022/06/21 01:49:05;;;;;;;4.73;3.73;;;13.80;99.90;;;;;;5032976;28;20415;-81
2022/06/21 01:51:36;;;;;;;5.30;4.30;;;13.80;99.90;;;;;;5034204;28;20206;-82
2022/06/21 01:54:05;;;;;;;4.87;3.73;;;13.80;99.90;;;;;;5032821;28;20407;-81
2022/06/21 01:56:36;;;;;;;6.53;4.10;;;13.80;99.90;;;;;;5033694;28;20823;-81
2022/06/21 01:59:19;;;;;;;4.43;3.40;;;13.80;99.90;;;;;;5034004;28;20439;-81
2022/06/21 02:01:51;;;;;;;10.53;4.60;;;13.70;99.90;;;;;;5033975;28;20419;-82
2022/06/21 02:04:21;;;;;;;7.43;4.13;;;13.60;99.90;;;;;;5034065;28;20395;-82
2022/06/21 02:06:48;;;;;;;6.80;3.93;;;13.60;99.90;;;;;;5032263;28;20422;-81
2022/06/21 02:09:42;;;;;;;5.07;3.60;;;13.60;99.90;;;;;;5033850;28;20783;-81
2022/06/21 02:12:11;;;;;;;4.33;3.73;;;13.50;99.90;;;;;;5033705;28;21123;-81
2022/06/21 02:14:41;;;;;;;6.83;4.30;;;13.40;99.90;;;;;;5033739;28;20485;-82
2022/06/21 02:17:40;;;;;;;6.90;4.53;;;13.40;99.90;;;;;;5033323;28;20513;-82
2022/06/21 02:20:45;;;;;;;5.90;4.10;;;13.40;99.90;;;;;;5033805;28;20781;-82
2022/06/21 02:23:16;;;;;;;6.53;4.37;;;13.50;99.90;;;;;;5033604;28;20457;-82
2022/06/21 02:25:43;;;;;;;8.13;4.13;;;13.40;99.90;;;;;;5033199;28;20430;-82
2022/06/21 02:28:14;;;;;;;5.83;4.23;;;13.40;99.90;;;;;;5032459;28;20484;-82
2022/06/21 02:30:41;;;;;;;8.83;6.20;;;13.40;99.90;;;;;;5035790;28;20439;-83
2022/06/21 02:33:15;;;;;;;5.10;4.00;;;13.40;99.90;;;;;;5036419;28;20415;-83
2022/06/21 02:35:46;;;;;;;5.43;4.03;;;13.40;99.90;;;;;;5035125;28;20454;-83
2022/06/21 02:38:23;;;;;;;7.03;4.67;;;13.40;99.90;;;;;;5036425;28;20433;-83
2022/06/21 02:40:58;;;;;;;7.17;5.27;;;13.40;99.90;;;;;;5036491;28;20449;-82
2022/06/21 02:43:32;;;;;;;6.53;3.87;;;13.40;99.90;;;;;;5035978;28;20415;-82
2022/06/21 02:46:08;;;;;;;5.50;4.23;;;13.40;99.90;;;;;;5036009;28;20408;-83
2022/06/21 02:48:48;;;;;;;5.77;4.60;;;13.40;99.90;;;;;;5034714;28;20457;-83
2022/06/21 02:51:19;;;;;;;10.00;5.03;;;13.40;99.90;;;;;;5036330;28;20426;-83
2022/06/21 02:54:01;;;;;;;6.73;5.27;;;13.20;99.90;;;;;;5035786;28;20415;-83
2022/06/21 02:56:35;;;;;;;7.57;5.57;;;13.20;99.90;;;;;;5035741;28;20734;-82
2022/06/21 02:59:02;;;;;;;8.50;5.77;;;13.10;99.90;;;;;;5035479;28;20403;-83
2022/06/21 03:01:45;;;;;;;5.13;3.90;;;13.00;99.90;;;;;;5035568;28;20411;-82
2022/06/21 03:04:25;;;;;;;7.33;5.17;;;13.00;99.90;;;;;;5035138;28;20413;-83
2022/06/21 03:06:51;;;;;;;7.43;5.10;;;12.90;99.90;;;;;;5034512;28;20963;-83
2022/06/21 03:09:21;;;;;;;5.37;4.60;;;12.90;99.90;;;;;;5035158;28;20427;-83
2022/06/21 03:11:51;;;;;;;6.10;4.63;;;12.90;99.90;;;;;;5034542;28;20161;-82
2022/06/21 03:14:24;;;;;;;7.27;5.73;;;12.80;99.90;;;;;;5034986;28;20455;-82
2022/06/21 03:16:52;;;;;;;7.43;4.83;;;12.80;99.90;;;;;;5034786;28;20407;-82
2022/06/21 03:19:37;;;;;;;6.63;5.00;;;12.80;99.90;;;;;;5033255;28;20950;-82
2022/06/21 03:22:13;;;;;;;6.77;5.50;;;12.70;99.90;;;;;;5033416;28;20415;-83
2022/06/21 03:24:39;;;;;;;7.17;4.60;;;12.70;99.90;;;;;;5035102;28;20415;-83
2022/06/21 03:27:23;;;;;;;7.57;5.13;;;12.70;99.90;;;;;;5034363;28;20930;-83
2022/06/21 03:29:48;;;;;;;7.17;4.83;;;12.70;99.90;;;;;;5032584;28;20443;-82
2022/06/21 03:32:14;;;;;;;10.50;4.70;;;12.70;99.90;;;;;;5032834;28;20493;-82
2022/06/21 03:34:41;;;;;;;7.43;5.60;;;12.70;99.90;;;;;;5034166;28;20683;-82
2022/06/21 03:37:07;;;;;;;8.60;5.63;;;12.60;99.90;;;;;;5033991;28;20411;-82
2022/06/21 03:42:20;;;;;;;6.63;4.73;;;12.70;99.90;;;;;;5033908;28;20211;-82
2022/06/21 03:44:59;;;;;;;7.97;4.80;;;12.70;99.90;;;;;;5033787;28;20880;-82
2022/06/21 03:47:25;;;;;;;10.80;6.30;;;12.70;99.90;;;;;;5033464;28;20431;-82
2022/06/21 03:50:12;;;;;;;8.63;5.20;;;12.70;99.90;;;;;;5033487;28;20438;-82
2022/06/21 03:53:12;;;;;;;8.67;4.70;;;12.60;99.90;;;;;;5032211;28;20195;-83
2022/06/21 03:56:18;;;;;;;5.90;4.43;;;12.70;99.90;;;;;;5033361;28;20482;-82
2022/06/21 03:59:08;;;;;;;11.03;4.70;;;12.70;99.90;;;;;;5033869;28;20429;-83
2022/06/21 04:01:44;;;;;;;7.30;4.77;;;12.60;99.90;;;;;;5033257;28;20402;-83
2022/06/21 04:04:38;;;;;;;7.50;5.40;;;12.70;99.90;;;;;;5032015;28;20901;-82
2022/06/21 04:07:28;;;;;;;7.03;4.90;;;12.70;99.90;;;;;;5032242;28;20431;-82
2022/06/21 04:10:08;;;;;;;6.70;4.80;;;12.80;99.90;;;;;;5031783;28;20828;-82
2022/06/21 04:12:53;;;;;;;7.30;4.43;;;12.90;99.90;;;;;;5033175;28;20440;-82
2022/06/21 04:15:27;;;;;;;6.80;5.00;;;12.90;99.90;;;;;;5032900;28;20454;-82
2022/06/21 04:17:58;;;;;;;6.20;4.80;;;12.90;99.90;;;;;;5032852;28;20411;-82
2022/06/21 04:20:33;;;;;;;5.90;4.50;;;13.00;99.90;;;;;;5031682;28;20439;-82
2022/06/21 04:23:17;;;;;;;7.27;5.37;;;13.00;99.90;;;;;;5034710;28;20422;-83
2022/06/21 04:25:51;;;;;;;9.07;4.70;;;13.10;99.90;;;;;;5035227;28;20427;-82
2022/06/21 04:28:28;;;;;;;8.07;5.27;;;13.30;99.90;;;;;;5035329;28;21053;-83
2022/06/21 04:31:17;;;;;;;6.47;5.63;;;13.30;99.90;;;;;;5035131;28;20684;-82
2022/06/21 04:33:50;;;;;;;7.67;4.53;;;13.40;99.90;;;;;;5035547;28;20407;-82
2022/06/21 04:36:24;;;;;;;5.70;3.87;;;13.40;99.90;;;;;;5035307;28;20465;-82
2022/06/21 04:39:00;;;;;;;7.93;5.13;;;13.60;99.90;;;;;;5035467;28;20415;-82
2022/06/21 04:41:47;;;;;;;7.13;5.10;;;13.70;99.90;;;;;;5035457;28;20411;-81
2022/06/21 04:44:22;;;;;;;7.90;5.00;;;13.70;99.90;;;;;;5035367;28;20414;-82
2022/06/21 04:47:04;;;;;;;7.67;5.13;;;13.80;99.90;;;;;;5035205;28;20391;-82
2022/06/21 04:49:41;;;;;;;7.40;4.93;;;13.80;99.90;;;;;;5035342;28;20426;-81
2022/06/21 04:52:17;;;;;;;8.07;4.90;;;13.80;99.90;;;;;;5035362;28;20440;-82
2022/06/21 04:54:43;;;;;;;9.53;5.20;;;13.80;99.90;;;;;;5035102;28;20592;-82
2022/06/21 04:57:25;;;;;;;10.23;5.17;;;13.80;99.90;;;;;;5033604;28;20946;-81
2022/06/21 04:59:55;;;;;;;9.00;5.13;;;13.90;99.90;;;;;;5035077;28;20422;-81
2022/06/21 05:02:40;;;;;;;10.90;5.07;;;14.00;99.90;;;;;;5035194;28;20761;-81
2022/06/21 05:05:27;;;;;;;6.30;4.90;;;14.10;99.90;;;;;;5034992;28;21133;-81
2022/06/21 05:08:07;;;;;;;5.43;4.77;;;14.20;99.90;;;;;;5034762;28;20464;-81
2022/06/21 05:10:36;;;;;;;7.27;4.87;;;14.20;99.90;;;;;;5034823;28;20441;-82
2022/06/21 05:13:06;;;;;;;12.17;5.80;;;14.30;99.90;;;;;;5033538;28;20466;-81
2022/06/21 05:15:39;;;;;;;12.53;6.10;;;14.40;99.90;;;;;;5034702;28;20929;-81
2022/06/21 05:18:39;;;;;;;7.53;5.80;;;14.50;99.90;;;;;;5034934;28;20993;-81
2022/06/21 05:21:18;;;;;;;7.40;5.03;;;14.70;99.90;;;;;;5034282;28;20450;-81
2022/06/21 05:23:44;;;;;;;10.80;6.47;;;14.70;99.90;;;;;;5034849;28;20403;-81
2022/06/21 05:26:20;;;;;;;7.83;5.50;;;14.90;99.90;;;;;;5034233;28;20412;-82
2022/06/21 05:29:23;;;;;;;6.80;5.73;;;15.00;99.90;;;;;;5034690;28;20406;-82
2022/06/21 05:31:54;;;;;;;8.43;5.70;;;15.10;99.90;;;;;;5034484;28;20418;-81
2022/06/21 05:34:24;;;;;;;6.23;4.73;;;15.10;99.90;;;;;;5034122;28;20439;-81
2022/06/21 05:37:03;;;;;;;8.07;4.97;;;15.20;99.90;;;;;;5034294;28;20392;-81
2022/06/21 05:42:12;;;;;;;5.83;4.67;;;15.40;99.90;;;;;;5030070;28;20467;-82
2022/06/21 05:44:41;;;;;;;6.90;4.83;;;15.50;99.90;;;;;;5034506;28;20402;-83
2022/06/21 05:47:15;;;;;;;6.70;4.97;;;15.60;99.90;;;;;;5032853;28;20442;-82
2022/06/21 05:49:42;;;;;;;7.70;5.10;;;15.80;99.90;;;;;;5033132;28;20406;-83
2022/06/21 05:52:16;;;;;;;7.53;5.40;;;15.90;99.90;;;;;;5033095;28;20427;-82
2022/06/21 05:54:51;;;;;;;9.07;5.80;;;16.10;99.90;;;;;;5033240;28;20812;-82
2022/06/21 05:57:21;;;;;;;6.53;4.23;;;16.20;99.90;;;;;;5033825;28;20402;-80
2022/06/21 05:59:46;;;;;;;7.90;4.50;;;16.30;99.90;;;;;;5034174;28;20441;-81
2022/06/21 06:02:21;;;;;;;6.33;4.33;;;16.40;99.90;;;;;;5034233;28;20407;-81
2022/06/21 06:04:56;;;;;;;9.30;4.33;;;16.50;99.90;;;;;;5032935;28;20301;-82
2022/06/21 06:07:50;;;;;;;8.70;3.60;;;16.60;99.90;;;;;;5035339;28;20491;-83
2022/06/21 06:10:17;;;;;;;5.53;3.80;;;16.70;99.90;;;;;;5035778;28;20447;-83
2022/06/21 06:13:01;;;;;;;5.80;3.97;;;16.70;99.90;;;;;;5036938;28;20427;-83
2022/06/21 06:15:33;;;;;;;7.63;3.63;;;16.90;99.90;;;;;;5032511;28;20478;-81
2022/06/21 06:18:10;;;;;;;7.40;4.20;;;17.00;99.90;;;;;;5034020;28;20878;-82
2022/06/21 06:20:40;;;;;;;4.30;3.80;;;17.10;99.90;;;;;;5032484;28;20445;-81
2022/06/21 06:23:37;;;;;;;6.27;3.90;;;17.10;99.90;;;;;;5033787;28;20544;-81
2022/06/21 06:26:13;;;;;;;8.17;5.10;;;17.30;99.90;;;;;;5033200;28;20403;-80
2022/06/21 06:29:05;;;;;;;6.27;3.53;;;17.40;99.90;;;;;;5032420;28;20415;-81
2022/06/21 06:31:39;;;;;;;4.50;3.70;;;17.50;99.90;;;;;;4992347;28;20435;-81
2022/06/21 06:34:15;;;;;;;5.73;3.60;;;17.60;99.90;;;;;;5032277;28;20441;-81
2022/06/21 06:36:46;;;;;;;6.50;4.20;;;17.70;99.90;;;;;;5033063;28;20430;-81
2022/06/21 06:39:24;;;;;;;7.73;4.20;;;17.70;99.90;;;;;;5032207;28;20411;-82
2022/06/21 06:42:09;;;;;;;5.90;3.90;;;17.90;99.90;;;;;;5031913;28;20462;-80
2022/06/21 06:44:44;;;;;;;4.23;2.93;;;18.00;99.90;;;;;;5032004;28;20419;-81
2022/06/21 06:47:15;;;;;;;6.70;4.17;;;18.10;99.90;;;;;;5032441;28;20403;-82
2022/06/21 06:49:51;;;;;;;5.03;3.70;;;18.10;99.90;;;;;;5033328;28;20412;-83
2022/06/21 06:52:22;;;;;;;5.10;3.63;;;18.20;99.90;;;;;;5040135;28;20790;-82
2022/06/21 06:54:57;;;;;;;5.30;3.30;;;18.20;99.90;;;;;;5039091;28;20820;-82
2022/06/21 06:57:39;;;;;;;8.07;3.50;;;18.30;99.90;;;;;;5036338;28;20812;-82
2022/06/21 07:00:17;;;;;;;4.30;3.30;;;18.40;99.90;;;;;;5037843;28;20589;-82
2022/06/21 07:02:48;;;;;;;7.07;3.33;;;18.50;99.90;;;;;;5037642;28;20464;-83
2022/06/21 07:05:26;;;;;;;5.60;3.70;;;18.60;99.90;;;;;;5036129;28;20505;-82
2022/06/21 07:07:54;;;;;;;6.40;3.50;;;18.60;99.90;;;;;;5037123;28;20403;-82
2022/06/21 07:10:23;;;;;;;6.63;3.60;;;18.70;99.90;;;;;;5037963;28;20479;-83
2022/06/21 07:12:51;;;;;;;6.17;3.40;;;18.80;99.90;;;;;;5037806;28;20411;-82
2022/06/21 07:15:18;;;;;;;6.50;3.43;;;18.90;99.90;;;;;;5037310;28;20566;-84
2022/06/21 07:17:51;;;;;;;4.13;2.93;;;19.00;99.90;;;;;;5035776;28;20414;-83
2022/06/21 07:20:30;;;;;;;5.50;3.60;;;19.20;99.90;;;;;;5032796;28;20431;-83
2022/06/21 07:22:56;;;;;;;7.67;3.33;;;19.40;99.90;;;;;;5031342;28;20423;-83
2022/06/21 07:25:26;;;;;;;5.97;3.77;;;19.60;99.90;;;;;;5031283;28;20423;-83
2022/06/21 07:28:00;;;;;;;6.30;3.67;;;19.70;99.90;;;;;;5031338;28;20181;-80
2022/06/21 07:30:38;;;;;;;4.50;3.03;;;19.80;99.90;;;;;;5032499;28;20500;-81
2022/06/21 07:33:09;;;;;;;6.10;3.70;;;20.00;99.90;;;;;;5032676;28;20401;-80
2022/06/21 07:35:41;;;;;;;5.20;3.40;;;20.10;99.90;;;;;;5032166;28;20446;-81
2022/06/21 07:38:10;;;;;;;7.20;3.70;;;20.10;99.90;;;;;;5031286;28;20418;-81
2022/06/21 07:40:44;;;;;;;6.80;3.70;;;20.20;99.90;;;;;;5031157;28;20465;-82
2022/06/21 07:43:33;;;;;;;4.10;3.10;;;20.30;99.90;;;;;;5033146;28;20415;-82
2022/06/21 07:46:02;;;;;;;5.47;2.77;;;20.30;99.90;;;;;;5025789;28;20423;-82
2022/06/21 07:48:38;;;;;;;6.40;3.63;;;20.40;99.90;;;;;;5034021;28;20458;-82
2022/06/21 07:51:18;;;;;;;6.77;3.73;;;20.50;99.90;;;;;;5034404;28;20454;-81
2022/06/21 07:53:55;;;;;;;5.57;3.00;;;20.70;99.90;;;;;;5035904;28;20502;-82
2022/06/21 07:56:44;;;;;;;4.47;2.90;;;20.80;99.90;;;;;;5034191;28;20485;-83
2022/06/21 07:59:24;;;;;;;8.47;3.10;;;20.70;99.90;;;;;;5035825;28;20890;-82
2022/06/21 08:07:33;;;;;;;5.40;2.97;;;21.00;99.90;;;;;;5034949;28;20434;-83
2022/06/21 08:10:24;;;;;;;7.57;2.80;;;21.30;99.90;;;;;;5033394;28;20877;-83
2022/06/21 08:12:50;;;;;;;6.57;2.80;;;21.60;99.90;;;;;;5034527;28;20809;-82
2022/06/21 08:15:17;;;;;;;5.50;3.10;;;22.00;99.90;;;;;;5034344;28;20450;-82
2022/06/21 08:18:01;;;;;;;5.97;4.17;;;22.90;99.90;;;;;;5034128;28;20469;-82
2022/06/21 08:20:38;;;;;;;3.47;2.37;;;23.70;99.90;;;;;;5034577;28;20469;-83
2022/06/21 08:23:08;;;;;;;5.47;2.80;;;24.60;99.90;;;;;;5034264;28;20422;-82
2022/06/21 08:25:44;;;;;;;4.87;3.17;;;24.90;95.40;;;;;;5034280;28;20454;-82
2022/06/21 08:28:18;;;;;;;4.23;2.73;;;25.20;96.40;;;;;;5022648;28;20435;-80
2022/06/21 08:31:00;;;;;;;5.17;2.90;;;25.80;93.60;;;;;;5024942;28;20481;-82
2022/06/21 08:33:43;;;;;;;4.70;2.67;;;26.10;92.20;;;;;;5032149;28;20514;-82
2022/06/21 08:36:15;;;;;;;4.80;3.07;;;26.30;91.20;;;;;;5031834;28;20454;-82
2022/06/21 08:39:01;;;;;;;3.80;2.10;;;26.50;88.00;;;;;;5033335;28;20415;-80
2022/06/21 08:41:57;;;;;;;4.20;2.50;;;27.30;89.80;;;;;;5017029;28;20459;-79
2022/06/21 08:48:27;;;;;;;5.57;2.70;;;27.50;81.60;;;;;;4991230;28;20396;-80
2022/06/21 08:51:07;;;;;;;6.90;2.50;;;27.90;78.70;;;;;;4990725;28;20520;-82
2022/06/21 08:53:38;;;;;;;5.93;2.63;;;27.90;75.00;;;;;;5011463;28;20427;-80
2022/06/21 08:56:46;;;;;;;3.63;2.40;;;27.70;73.20;;;;;;5027794;28;20873;-81
2022/06/21 08:59:14;;;;;;;3.80;2.53;;;27.60;72.60;;;;;;4993855;28;20433;-81
2022/06/21 09:01:48;;;;;;;3.57;2.40;;;27.80;75.90;;;;;;5013573;28;20475;-80
2022/06/21 09:04:19;;;;;;;6.40;4.53;;;28.80;67.00;;;;;;5013821;28;20388;-81
2022/06/21 09:06:51;;;;;;;4.13;2.37;;;30.10;63.70;;;;;;5013045;28;20400;-82
2022/06/21 09:09:35;;;;;;;4.00;2.47;;;31.40;63.20;;;;;;5014322;28;20408;-79
2022/06/21 09:12:16;;;;;;;2.93;1.87;;;33.20;57.50;;;;;;5031768;28;20412;-80
2022/06/21 09:15:19;;;;;;;3.47;2.00;;;34.30;52.80;;;;;;5016660;28;20882;-80
2022/06/21 09:18:06;;;;;;;3.40;1.70;;;35.20;48.30;;;;;;5016253;28;20400;-81
2022/06/21 09:20:38;;;;;;;4.20;2.33;;;36.20;46.80;;;;;;5031398;28;20511;-81
2022/06/21 09:23:08;;;;;;;4.27;2.50;;;35.70;43.60;;;;;;5031449;28;20782;-80
2022/06/21 09:26:15;;;;;;;3.60;2.07;;;35.00;42.00;;;;;;5015769;28;20415;-81
2022/06/21 09:28:48;;;;;;;3.83;2.43;;;35.30;41.50;;;;;;4994591;28;20947;-80
2022/06/21 09:31:27;;;;;;;4.03;2.30;;;34.80;41.70;;;;;;4977473;28;20457;-82
2022/06/21 09:34:06;;;;;;;3.60;2.47;;;34.90;43.60;;;;;;4998988;28;20451;-81
2022/06/21 09:36:38;;;;;;;4.60;2.70;;;34.70;42.60;;;;;;5014616;28;20457;-82
2022/06/21 09:39:06;;;;;;;4.40;2.30;;;34.80;41.90;;;;;;5014777;28;20467;-82
2022/06/21 09:42:00;;;;;;;4.30;2.53;;;34.60;41.50;;;;;;5015999;28;20452;-82
2022/06/21 09:45:02;;;;;;;4.00;2.30;;;34.50;41.30;;;;;;5014100;28;20420;-83
2022/06/21 09:48:03;;;;;;;2.73;1.80;;;33.80;40.60;;;;;;5014052;28;20419;-81
2022/06/21 09:50:38;;;;;;;4.50;2.30;;;32.80;41.10;;;;;;5014657;28;20480;-81
2022/06/21 09:53:28;;;;;;;4.50;2.23;;;31.70;43.40;;;;;;5029324;28;20431;-80
2022/06/21 09:56:00;;;;;;;3.50;2.27;;;30.90;43.90;;;;;;5015310;28;20947;-80
2022/06/21 09:58:31;;;;;;;4.63;2.63;;;30.30;44.40;;;;;;5030941;28;20477;-80
2022/06/21 10:01:17;;;;;;;4.07;2.43;;;29.90;46.10;;;;;;5030551;28;20455;-81
2022/06/21 10:04:21;;;;;;;4.90;3.10;;;29.70;47.70;;;;;;5015611;28;20411;-81
2022/06/21 10:06:58;;;;;;;3.60;2.40;;;28.80;46.80;;;;;;5012834;28;20852;-80
2022/06/21 10:09:27;;;;;;;3.43;2.03;;;28.70;47.90;;;;;;5014179;28;20949;-79
2022/06/21 10:12:07;;;;;;;4.60;2.63;;;27.80;48.00;;;;;;5029169;28;20444;-79
2022/06/21 10:14:57;;;;;;;6.43;2.63;;;27.60;47.80;;;;;;5029673;28;20502;-79
2022/06/21 10:17:42;;;;;;;5.23;2.90;;;27.30;49.50;;;;;;5028889;28;20428;-80
2022/06/21 10:20:32;;;;;;;4.00;2.60;;;27.60;49.30;;;;;;5011161;28;20458;-79
2022/06/21 10:23:13;;;;;;;6.90;2.70;;;27.90;52.30;;;;;;5014150;28;20423;-80
2022/06/21 10:25:51;;;;;;;3.30;2.73;;;27.90;51.80;;;;;;5028559;28;20973;-79
2022/06/21 10:28:41;;;;;;;3.67;2.43;;;27.80;48.80;;;;;;5012820;28;20915;-80
2022/06/21 10:31:28;;;;;;;3.40;2.70;;;27.70;51.00;;;;;;5029457;28;20863;-80
2022/06/21 10:34:03;;;;;;;3.80;2.57;;;27.60;51.10;;;;;;5013639;28;20408;-79
2022/06/21 10:37:10;;;;;;;3.93;2.40;;;27.60;50.00;;;;;;5013878;28;20463;-80
2022/06/21 10:39:51;;;;;;;4.13;2.43;;;27.30;50.00;;;;;;5029444;28;20477;-79
2022/06/21 10:42:47;;;;;;;3.47;2.40;;;27.30;51.60;;;;;;5012886;28;20432;-81
2022/06/21 10:45:22;;;;;;;4.93;2.57;;;27.50;52.30;;;;;;5028470;28;20474;-79
2022/06/21 10:48:19;;;;;;;2.70;2.03;;;27.40;51.70;;;;;;5029190;28;20435;-79
2022/06/21 10:50:49;;;;;;;5.90;2.80;;;27.30;52.40;;;;;;5029060;28;20958;-78
2022/06/21 10:53:34;;;;;;;3.10;2.20;;;27.10;53.20;;;;;;5029658;28;20486;-79
2022/06/21 10:59:14;;;;;;;4.50;2.40;;;26.50;51.70;;;;;;5013797;28;20462;-81
2022/06/21 11:01:50;;;;;;;3.90;2.07;;;26.40;52.30;;;;;;5029334;28;20835;-79
2022/06/21 11:04:25;;;;;;;6.67;2.90;;;26.10;52.50;;;;;;5012461;28;20435;-79
2022/06/21 11:07:08;;;;;;;4.13;2.10;;;25.60;53.00;;;;;;5028683;28;20517;-81
2022/06/21 11:09:46;;;;;;;3.57;2.30;;;25.40;53.60;;;;;;5012104;28;20435;-79
2022/06/21 11:15:23;;;;;;;3.97;2.27;;;25.40;54.30;;;;;;5012980;28;20483;-81
2022/06/21 11:18:04;;;;;;;3.00;2.07;;;25.40;53.10;;;;;;5013612;28;20462;-79
2022/06/21 11:21:06;;;;;;;4.00;2.30;;;25.60;53.70;;;;;;5013172;28;20436;-78
2022/06/21 11:24:03;;;;;;;3.13;2.00;;;25.80;52.90;;;;;;5014006;28;20411;-79
2022/06/21 11:26:51;;;;;;;3.67;2.50;;;26.30;53.00;;;;;;5028356;28;20490;-81
2022/06/21 11:29:40;;;;;;;3.83;2.63;;;27.00;53.60;;;;;;5028370;28;20428;-79
2022/06/21 11:32:34;;;;;;;4.93;2.10;;;27.70;55.20;;;;;;5011462;28;20427;-79
2022/06/21 11:35:29;;;;;;;4.60;2.20;;;28.10;53.70;;;;;;5011871;28;20979;-79
2022/06/21 11:38:16;;;;;;;3.50;1.97;;;28.20;52.90;;;;;;5013439;28;20413;-79
2022/06/21 11:40:55;;;;;;;3.33;2.57;;;28.50;51.40;;;;;;5009186;28;20463;-82
2022/06/21 11:43:46;;;;;;;4.10;2.50;;;28.60;52.40;;;;;;5027536;28;21121;-82
2022/06/21 11:46:20;;;;;;;5.20;2.70;;;28.50;52.80;;;;;;5031870;28;20942;-82
2022/06/21 11:48:58;;;;;;;3.40;2.23;;;28.30;62.40;;;;;;5032306;28;20825;-81
2022/06/21 11:51:30;;;;;;;5.23;2.60;;;27.40;65.70;;;;;;5030821;28;20470;-82
2022/06/21 11:54:03;;;;;;;4.10;2.70;;;28.10;56.00;;;;;;5075295;22;20505;-84
2022/06/21 11:56:37;;;;;;;4.07;2.40;;;28.00;52.50;;;;;;5047667;28;20468;-83
2022/06/21 11:59:18;;;;;;;3.57;2.30;;;28.20;52.70;;;;;;5046851;28;20413;-83
2022/06/21 12:01:54;;;;;;;3.87;2.27;;;28.20;51.80;;;;;;5050566;28;20418;-83
2022/06/21 12:04:44;;;;;;;3.43;2.13;;;28.20;51.30;;;;;;5050409;28;20437;-83
2022/06/21 12:07:12;;;;;;;3.23;2.43;;;28.10;51.20;;;;;;5051507;28;20746;-83
2022/06/21 12:10:01;;;;;;;3.70;3.03;;;28.30;51.20;;;;;;5049991;28;20457;-85
2022/06/21 12:12:45;;;;;;;5.90;3.37;;;28.00;50.60;;;;;;5050437;28;20434;-83
2022/06/21 12:15:24;;;;;;;4.40;2.50;;;27.60;51.00;;;;;;5050286;28;20682;-82
2022/06/21 12:17:58;;;;;;;3.50;2.23;;;27.40;50.40;;;;;;5050161;28;20508;-83
2022/06/21 12:20:38;;;;;;;3.27;2.37;;;27.30;53.50;;;;;;5051183;28;20403;-82
2022/06/21 12:23:19;;;;;;;3.30;2.20;;;27.40;54.10;;;;;;5049783;28;20443;-82
2022/06/21 12:25:46;;;;;;;5.07;2.83;;;27.70;54.00;;;;;;5050828;28;20410;-81
2022/06/21 12:28:15;;;;;;;7.20;2.40;;;28.00;53.50;;;;;;5050155;28;20450;-82
2022/06/21 12:30:41;;;;;;;4.27;2.90;;;28.30;53.50;;;;;;5049680;28;20933;-82
2022/06/21 12:33:12;;;;;;;4.20;2.10;;;28.50;53.10;;;;;;5051318;28;20437;-82
2022/06/21 12:35:52;;;;;;;4.20;2.50;;;28.60;53.90;;;;;;5048808;28;21195;-80
2022/06/21 12:38:35;;;;;;;5.13;2.30;;;28.60;53.70;;;;;;5051628;28;20398;-82
2022/06/21 12:41:23;;;;;;;3.90;2.67;;;28.80;54.20;;;;;;5050075;28;20927;-80
2022/06/21 12:44:13;;;;;;;4.77;1.90;;;29.20;53.30;;;;;;5051267;28;20944;-81
2022/06/21 12:47:19;;;;;;;5.33;2.53;;;29.50;52.60;;;;;;5054678;28;20390;-83
2022/06/21 12:50:04;;;;;;;3.53;2.10;;;29.10;50.10;;;;;;5033113;28;20456;-80
2022/06/21 12:52:35;;;;;;;3.47;2.13;;;29.10;51.00;;;;;;5054991;28;20937;-79
2022/06/21 12:55:00;;;;;;;3.00;2.00;;;29.00;49.40;;;;;;5055234;28;20497;-79
2022/06/21 12:57:35;;;;;;;3.83;2.20;;;28.90;50.90;;;;;;5054854;28;20438;-82
2022/06/21 13:00:44;;;;;;;2.77;2.13;;;28.90;52.40;;;;;;5055189;28;20156;-84
2022/06/21 13:03:31;;;;;;;4.60;2.33;;;29.00;53.30;;;;;;5032967;28;20830;-82
2022/06/21 13:06:17;;;;;;;4.53;3.07;;;29.40;53.10;;;;;;5053169;28;20449;-81
2022/06/21 13:09:10;;;;;;;3.83;2.20;;;29.80;52.90;;;;;;5055022;28;20410;-81
2022/06/21 13:12:10;;;;;;;4.40;2.60;;;30.00;52.20;;;;;;5054656;28;20424;-81
2022/06/21 13:14:45;;;;;;;4.13;2.67;;;30.20;52.90;;;;;;5054825;28;20491;-80
2022/06/21 13:17:16;;;;;;;4.87;2.17;;;30.40;51.70;;;;;;5053195;28;20898;-80
2022/06/21 13:19:57;;;;;;;5.80;2.83;;;30.40;50.40;;;;;;5054670;28;20394;-80
2022/06/21 13:23:09;;;;;;;4.23;3.10;;;30.30;50.30;;;;;;5053387;28;20498;-80
2022/06/21 13:25:59;;;;;;;4.20;2.60;;;29.90;49.50;;;;;;4972938;28;20468;-79
2022/06/21 13:28:44;;;;;;;4.50;3.10;;;29.40;49.00;;;;;;4973685;28;20506;-82
2022/06/21 13:31:38;;;;;;;5.50;2.57;;;29.30;51.70;;;;;;5040284;28;20454;-83
2022/06/21 13:34:26;;;;;;;4.60;2.87;;;29.30;52.00;;;;;;5044561;28;20504;-83
2022/06/21 13:36:55;;;;;;;3.70;2.30;;;29.20;50.90;;;;;;5054931;28;20438;-82
2022/06/21 13:39:39;;;;;;;3.80;2.27;;;29.10;51.60;;;;;;5057765;28;20410;-83
2022/06/21 13:45:10;;;;;;;3.40;2.27;;;28.90;51.90;;;;;;5057246;28;20394;-81
2022/06/21 13:47:54;;;;;;;3.57;2.47;;;28.70;51.60;;;;;;5054313;28;20397;-81
2022/06/21 13:50:36;;;;;;;2.97;2.60;;;28.70;52.50;;;;;;5056394;28;20410;-82
2022/06/21 13:53:23;;;;;;;5.53;2.17;;;28.70;53.00;;;;;;5057161;28;20489;-82
2022/06/21 13:55:58;;;;;;;4.70;2.43;;;28.60;51.80;;;;;;5057603;28;20465;-82
2022/06/21 13:58:41;;;;;;;5.50;2.97;;;28.50;51.30;;;;;;5058602;28;20410;-82
2022/06/21 14:01:30;;;;;;;4.30;2.20;;;28.30;50.10;;;;;;5057301;28;20418;-80
2022/06/21 14:04:20;;;;;;;5.47;2.23;;;28.30;51.60;;;;;;5047635;28;20815;-81
2022/06/21 14:07:13;;;;;;;4.87;2.70;;;28.30;52.50;;;;;;5057399;28;20475;-80